sensor_id;sensor_type;location;lat;lon;timestamp;temperature;humidity
9414;DHT22;4746;35.664;139.738;2022-12-18T00:01:48;7.40;99.90
9414;DHT22;4746;35.664;139.738;2022-12-18T00:04:21;7.50;99.90
9414;DHT22;4746;35.664;139.738;2022-12-18T00:06:50;7.50;99.90
9414;DHT22;4746;35.664;139.738;2022-12-18T00:09:18;7.50;99.90
9414;DHT22;4746;35.664;139.738;2022-12-18T00:11:46;7.50;99.90
9414;DHT22;4746;35.664;139.738;2022-12-18T00:14:14;7.50;99.90
9414;DHT22;4746;35.664;139.738;2022-12-18T00:16:44;7.50;99.90
9414;DHT22;4746;35.664;139.738;2022-12-18T00:19:14;7.50;99.90
9414;DHT22;4746;35.664;139.738;2022-12-18T00:21:43;7.70;99.90
9414;DHT22;4746;35.664;139.738;2022-12-18T00:24:11;7.70;99.90
9414;DHT22;4746;35.664;139.738;2022-12-18T00:26:39;7.80;99.90
9414;DHT22;4746;35.664;139.738;2022-12-18T00:29:11;7.90;99.90
9414;DHT22;4746;35.664;139.738;2022-12-18T00:31:41;8.00;99.90
9414;DHT22;4746;35.664;139.738;2022-12-18T00:34:13;8.10;99.90
9414;DHT22;4746;35.664;139.738;2022-12-18T00:36:41;8.10;99.90
9414;DHT22;4746;35.664;139.738;2022-12-18T00:39:09;8.10;99.90
9414;DHT22;4746;35.664;139.738;2022-12-18T00:41:38;8.10;99.90
9414;DHT22;4746;35.664;139.738;2022-12-18T00:44:24;8.10;99.90
9414;DHT22;4746;35.664;139.738;2022-12-18T00:46:51;8.10;99.90
9414;DHT22;4746;35.664;139.738;2022-12-18T00:49:20;8.00;99.90
9414;DHT22;4746;35.664;139.738;2022-12-18T00:51:48;8.00;99.90
9414;DHT22;4746;35.664;139.738;2022-12-18T00:54:16;8.00;99.90
9414;DHT22;4746;35.664;139.738;2022-12-18T00:56:44;8.10;99.90
9414;DHT22;4746;35.664;139.738;2022-12-18T00:59:12;8.10;99.90
9414;DHT22;4746;35.664;139.738;2022-12-18T01:01:39;8.10;99.90
9414;DHT22;4746;35.664;139.738;2022-12-18T01:04:07;8.10;99.90
9414;DHT22;4746;35.664;139.738;2022-12-18T01:06:35;8.10;99.90
9414;DHT22;4746;35.664;139.738;2022-12-18T01:09:03;8.20;99.90
9414;DHT22;4746;35.664;139.738;2022-12-18T01:11:31;8.20;99.90
9414;DHT22;4746;35.664;139.738;2022-12-18T01:13:59;8.30;99.90
9414;DHT22;4746;35.664;139.738;2022-12-18T01:16:26;8.30;99.90
9414;DHT22;4746;35.664;139.738;2022-12-18T01:18:54;8.40;99.90
9414;DHT22;4746;35.664;139.738;2022-12-18T01:21:23;8.60;99.90
9414;DHT22;4746;35.664;139.738;2022-12-18T01:23:55;8.60;99.90
9414;DHT22;4746;35.664;139.738;2022-12-18T01:26:25;8.60;99.90
9414;DHT22;4746;35.664;139.738;2022-12-18T01:28:58;8.70;99.90
9414;DHT22;4746;35.664;139.738;2022-12-18T01:31:31;8.80;99.90
9414;DHT22;4746;35.664;139.738;2022-12-18T01:34:04;8.80;99.90
9414;DHT22;4746;35.664;139.738;2022-12-18T01:36:34;8.70;99.90
9414;DHT22;4746;35.664;139.738;2022-12-18T01:39:06;8.80;99.90
9414;DHT22;4746;35.664;139.738;2022-12-18T01:41:38;9.00;99.90
9414;DHT22;4746;35.664;139.738;2022-12-18T01:44:53;9.20;99.90
9414;DHT22;4746;35.664;139.738;2022-12-18T01:47:30;9.20;99.90
9414;DHT22;4746;35.664;139.738;2022-12-18T01:50:09;9.20;99.90
9414;DHT22;4746;35.664;139.738;2022-12-18T01:55:53;9.60;99.90
9414;DHT22;4746;35.664;139.738;2022-12-18T01:58:39;9.80;99.90
9414;DHT22;4746;35.664;139.738;2022-12-18T02:01:09;9.90;99.90
9414;DHT22;4746;35.664;139.738;2022-12-18T02:03:37;10.00;99.90
9414;DHT22;4746;35.664;139.738;2022-12-18T02:09:20;10.30;99.90
9414;DHT22;4746;35.664;139.738;2022-12-18T02:12:25;10.30;99.90
9414;DHT22;4746;35.664;139.738;2022-12-18T02:15:39;10.40;99.90
9414;DHT22;4746;35.664;139.738;2022-12-18T02:18:36;10.40;99.90
9414;DHT22;4746;35.664;139.738;2022-12-18T02:21:42;10.20;99.90
9414;DHT22;4746;35.664;139.738;2022-12-18T02:26:53;10.00;99.90
9414;DHT22;4746;35.664;139.738;2022-12-18T02:29:36;10.00;99.90
9414;DHT22;4746;35.664;139.738;2022-12-18T02:32:32;10.30;99.90
9414;DHT22;4746;35.664;139.738;2022-12-18T02:35:06;10.50;99.90
9414;DHT22;4746;35.664;139.738;2022-12-18T02:37:40;10.70;99.90
9414;DHT22;4746;35.664;139.738;2022-12-18T02:40:12;10.80;94.90
9414;DHT22;4746;35.664;139.738;2022-12-18T02:42:42;10.80;79.90
9414;DHT22;4746;35.664;139.738;2022-12-18T02:45:10;10.80;82.10
9414;DHT22;4746;35.664;139.738;2022-12-18T02:47:40;11.00;85.00
9414;DHT22;4746;35.664;139.738;2022-12-18T02:50:30;11.20;92.90
9414;DHT22;4746;35.664;139.738;2022-12-18T02:53:33;11.50;91.60
9414;DHT22;4746;35.664;139.738;2022-12-18T02:56:18;11.40;92.60
9414;DHT22;4746;35.664;139.738;2022-12-18T02:59:09;11.40;77.10
9414;DHT22;4746;35.664;139.738;2022-12-18T03:02:15;11.30;67.20
9414;DHT22;4746;35.664;139.738;2022-12-18T03:04:59;11.20;59.60
9414;DHT22;4746;35.664;139.738;2022-12-18T03:07:43;10.90;62.20
9414;DHT22;4746;35.664;139.738;2022-12-18T03:10:16;10.40;66.10
9414;DHT22;4746;35.664;139.738;2022-12-18T03:12:53;10.10;69.30
9414;DHT22;4746;35.664;139.738;2022-12-18T03:15:37;10.20;74.10
9414;DHT22;4746;35.664;139.738;2022-12-18T03:18:37;9.90;54.90
9414;DHT22;4746;35.664;139.738;2022-12-18T03:21:11;10.00;42.90
9414;DHT22;4746;35.664;139.738;2022-12-18T03:23:44;10.10;37.90
9414;DHT22;4746;35.664;139.738;2022-12-18T03:26:18;10.30;35.00
9414;DHT22;4746;35.664;139.738;2022-12-18T03:28:55;10.50;32.60
9414;DHT22;4746;35.664;139.738;2022-12-18T03:31:30;10.60;31.80
9414;DHT22;4746;35.664;139.738;2022-12-18T03:34:09;10.80;31.30
9414;DHT22;4746;35.664;139.738;2022-12-18T03:36:42;10.90;30.60
9414;DHT22;4746;35.664;139.738;2022-12-18T03:39:10;11.20;31.60
9414;DHT22;4746;35.664;139.738;2022-12-18T03:41:55;11.30;30.00
9414;DHT22;4746;35.664;139.738;2022-12-18T03:44:43;11.50;30.50
9414;DHT22;4746;35.664;139.738;2022-12-18T03:50:16;11.60;29.80
9414;DHT22;4746;35.664;139.738;2022-12-18T03:55:57;11.60;28.60
9414;DHT22;4746;35.664;139.738;2022-12-18T03:58:28;11.80;27.40
9414;DHT22;4746;35.664;139.738;2022-12-18T04:01:02;12.10;27.70
9414;DHT22;4746;35.664;139.738;2022-12-18T04:03:35;12.60;27.90
9414;DHT22;4746;35.664;139.738;2022-12-18T04:06:05;12.70;28.70
9414;DHT22;4746;35.664;139.738;2022-12-18T04:08:34;13.10;30.70
9414;DHT22;4746;35.664;139.738;2022-12-18T04:11:03;13.60;29.50
9414;DHT22;4746;35.664;139.738;2022-12-18T04:13:34;14.00;31.20
9414;DHT22;4746;35.664;139.738;2022-12-18T04:16:04;14.30;32.90
9414;DHT22;4746;35.664;139.738;2022-12-18T04:18:33;14.70;33.00
9414;DHT22;4746;35.664;139.738;2022-12-18T04:21:01;14.80;32.30
9414;DHT22;4746;35.664;139.738;2022-12-18T04:23:29;14.80;35.30
9414;DHT22;4746;35.664;139.738;2022-12-18T04:25:57;14.90;36.40
9414;DHT22;4746;35.664;139.738;2022-12-18T04:28:24;15.30;37.30
9414;DHT22;4746;35.664;139.738;2022-12-18T04:30:53;15.60;37.40
9414;DHT22;4746;35.664;139.738;2022-12-18T04:33:21;16.00;36.60
9414;DHT22;4746;35.664;139.738;2022-12-18T04:35:48;16.50;34.50
9414;DHT22;4746;35.664;139.738;2022-12-18T04:38:16;17.00;34.20
9414;DHT22;4746;35.664;139.738;2022-12-18T04:40:43;17.30;33.00
9414;DHT22;4746;35.664;139.738;2022-12-18T04:43:11;17.70;32.20
9414;DHT22;4746;35.664;139.738;2022-12-18T04:45:39;17.80;31.70
9414;DHT22;4746;35.664;139.738;2022-12-18T04:48:06;17.80;30.80
9414;DHT22;4746;35.664;139.738;2022-12-18T04:50:34;18.00;31.00
9414;DHT22;4746;35.664;139.738;2022-12-18T04:53:01;18.00;30.00
9414;DHT22;4746;35.664;139.738;2022-12-18T04:55:29;18.50;31.40
9414;DHT22;4746;35.664;139.738;2022-12-18T04:57:57;19.00;30.10
9414;DHT22;4746;35.664;139.738;2022-12-18T05:00:24;19.30;29.30
9414;DHT22;4746;35.664;139.738;2022-12-18T05:02:52;19.10;28.20
9414;DHT22;4746;35.664;139.738;2022-12-18T05:05:19;19.20;27.70
9414;DHT22;4746;35.664;139.738;2022-12-18T05:07:47;19.00;26.70
9414;DHT22;4746;35.664;139.738;2022-12-18T05:10:15;18.80;25.70
9414;DHT22;4746;35.664;139.738;2022-12-18T05:12:43;19.10;26.10
9414;DHT22;4746;35.664;139.738;2022-12-18T05:15:34;19.40;25.90
9414;DHT22;4746;35.664;139.738;2022-12-18T05:18:02;20.00;25.50
9414;DHT22;4746;35.664;139.738;2022-12-18T05:20:30;20.40;25.60
9414;DHT22;4746;35.664;139.738;2022-12-18T05:22:58;20.40;23.80
9414;DHT22;4746;35.664;139.738;2022-12-18T05:25:26;20.70;24.30
9414;DHT22;4746;35.664;139.738;2022-12-18T05:27:53;21.20;23.60
9414;DHT22;4746;35.664;139.738;2022-12-18T05:30:21;21.50;23.10
9414;DHT22;4746;35.664;139.738;2022-12-18T05:32:49;21.70;22.70
9414;DHT22;4746;35.664;139.738;2022-12-18T05:35:16;21.90;22.50
9414;DHT22;4746;35.664;139.738;2022-12-18T05:37:44;21.90;21.80
9414;DHT22;4746;35.664;139.738;2022-12-18T05:40:12;21.90;21.00
9414;DHT22;4746;35.664;139.738;2022-12-18T05:42:39;21.70;20.30
9414;DHT22;4746;35.664;139.738;2022-12-18T05:45:07;21.80;20.60
9414;DHT22;4746;35.664;139.738;2022-12-18T05:47:35;21.90;19.60
9414;DHT22;4746;35.664;139.738;2022-12-18T05:50:03;21.90;18.90
9414;DHT22;4746;35.664;139.738;2022-12-18T05:52:31;22.10;18.30
9414;DHT22;4746;35.664;139.738;2022-12-18T05:54:59;21.60;15.60
9414;DHT22;4746;35.664;139.738;2022-12-18T05:57:26;21.20;14.50
9414;DHT22;4746;35.664;139.738;2022-12-18T05:59:54;21.10;14.50
9414;DHT22;4746;35.664;139.738;2022-12-18T06:02:21;20.70;13.80
9414;DHT22;4746;35.664;139.738;2022-12-18T06:04:49;20.20;13.90
9414;DHT22;4746;35.664;139.738;2022-12-18T06:07:16;19.60;13.50
9414;DHT22;4746;35.664;139.738;2022-12-18T06:09:44;19.00;13.40
9414;DHT22;4746;35.664;139.738;2022-12-18T06:12:11;19.20;13.70
9414;DHT22;4746;35.664;139.738;2022-12-18T06:14:39;19.40;13.90
9414;DHT22;4746;35.664;139.738;2022-12-18T06:17:06;19.40;13.80
9414;DHT22;4746;35.664;139.738;2022-12-18T06:19:34;19.00;13.60
9414;DHT22;4746;35.664;139.738;2022-12-18T06:22:02;18.80;13.50
9414;DHT22;4746;35.664;139.738;2022-12-18T06:24:30;18.70;13.70
9414;DHT22;4746;35.664;139.738;2022-12-18T06:26:57;18.30;12.60
9414;DHT22;4746;35.664;139.738;2022-12-18T06:29:25;17.50;12.60
9414;DHT22;4746;35.664;139.738;2022-12-18T06:31:52;17.50;13.30
9414;DHT22;4746;35.664;139.738;2022-12-18T06:34:20;16.90;13.00
9414;DHT22;4746;35.664;139.738;2022-12-18T06:36:48;16.90;13.20
9414;DHT22;4746;35.664;139.738;2022-12-18T06:39:15;16.50;12.70
9414;DHT22;4746;35.664;139.738;2022-12-18T06:41:43;16.80;13.30
9414;DHT22;4746;35.664;139.738;2022-12-18T06:44:11;16.90;13.20
9414;DHT22;4746;35.664;139.738;2022-12-18T06:46:38;17.10;12.90
9414;DHT22;4746;35.664;139.738;2022-12-18T06:49:06;17.00;12.30
9414;DHT22;4746;35.664;139.738;2022-12-18T06:51:35;16.50;12.00
9414;DHT22;4746;35.664;139.738;2022-12-18T06:54:03;15.80;11.80
9414;DHT22;4746;35.664;139.738;2022-12-18T06:56:31;15.40;11.90
9414;DHT22;4746;35.664;139.738;2022-12-18T06:58:58;15.60;12.50
9414;DHT22;4746;35.664;139.738;2022-12-18T07:01:30;16.00;12.90
9414;DHT22;4746;35.664;139.738;2022-12-18T07:03:58;16.40;13.30
9414;DHT22;4746;35.664;139.738;2022-12-18T07:06:26;16.50;13.60
9414;DHT22;4746;35.664;139.738;2022-12-18T07:08:54;16.00;12.70
9414;DHT22;4746;35.664;139.738;2022-12-18T07:11:22;15.30;12.30
9414;DHT22;4746;35.664;139.738;2022-12-18T07:13:51;14.80;12.20
9414;DHT22;4746;35.664;139.738;2022-12-18T07:16:21;14.30;12.40
9414;DHT22;4746;35.664;139.738;2022-12-18T07:18:49;14.20;13.00
9414;DHT22;4746;35.664;139.738;2022-12-18T07:21:18;13.90;13.20
9414;DHT22;4746;35.664;139.738;2022-12-18T07:23:46;13.60;13.10
9414;DHT22;4746;35.664;139.738;2022-12-18T07:26:16;13.50;13.30
9414;DHT22;4746;35.664;139.738;2022-12-18T07:28:45;12.80;13.20
9414;DHT22;4746;35.664;139.738;2022-12-18T07:31:15;12.20;13.20
9414;DHT22;4746;35.664;139.738;2022-12-18T07:33:45;11.90;13.70
9414;DHT22;4746;35.664;139.738;2022-12-18T07:36:13;11.50;13.80
9414;DHT22;4746;35.664;139.738;2022-12-18T07:38:42;11.10;13.80
9414;DHT22;4746;35.664;139.738;2022-12-18T07:41:12;10.90;14.10
9414;DHT22;4746;35.664;139.738;2022-12-18T07:43:40;10.70;14.10
9414;DHT22;4746;35.664;139.738;2022-12-18T07:46:09;10.30;14.20
9414;DHT22;4746;35.664;139.738;2022-12-18T07:48:37;10.10;14.50
9414;DHT22;4746;35.664;139.738;2022-12-18T07:51:06;10.00;14.90
9414;DHT22;4746;35.664;139.738;2022-12-18T07:53:35;9.80;15.60
9414;DHT22;4746;35.664;139.738;2022-12-18T07:56:05;9.70;16.00
9414;DHT22;4746;35.664;139.738;2022-12-18T07:58:35;9.60;16.10
9414;DHT22;4746;35.664;139.738;2022-12-18T08:01:08;9.50;16.10
9414;DHT22;4746;35.664;139.738;2022-12-18T08:03:39;9.30;16.10
9414;DHT22;4746;35.664;139.738;2022-12-18T08:06:09;9.20;16.20
9414;DHT22;4746;35.664;139.738;2022-12-18T08:08:37;9.20;16.20
9414;DHT22;4746;35.664;139.738;2022-12-18T08:11:06;9.10;16.30
9414;DHT22;4746;35.664;139.738;2022-12-18T08:13:40;9.10;16.50
9414;DHT22;4746;35.664;139.738;2022-12-18T08:16:08;9.20;16.60
9414;DHT22;4746;35.664;139.738;2022-12-18T08:18:36;9.10;16.60
9414;DHT22;4746;35.664;139.738;2022-12-18T08:21:15;9.20;16.80
9414;DHT22;4746;35.664;139.738;2022-12-18T08:23:44;9.20;17.00
9414;DHT22;4746;35.664;139.738;2022-12-18T08:26:12;9.20;17.20
9414;DHT22;4746;35.664;139.738;2022-12-18T08:28:40;9.20;17.10
9414;DHT22;4746;35.664;139.738;2022-12-18T08:31:08;9.30;17.00
9414;DHT22;4746;35.664;139.738;2022-12-18T08:33:37;9.20;16.90
9414;DHT22;4746;35.664;139.738;2022-12-18T08:36:06;9.20;16.80
9414;DHT22;4746;35.664;139.738;2022-12-18T08:38:35;9.20;16.90
9414;DHT22;4746;35.664;139.738;2022-12-18T08:41:05;9.20;16.80
9414;DHT22;4746;35.664;139.738;2022-12-18T08:43:35;9.10;16.50
9414;DHT22;4746;35.664;139.738;2022-12-18T08:46:24;9.10;16.80
9414;DHT22;4746;35.664;139.738;2022-12-18T08:48:54;9.00;16.90
9414;DHT22;4746;35.664;139.738;2022-12-18T08:51:22;9.00;16.30
9414;DHT22;4746;35.664;139.738;2022-12-18T08:53:50;8.70;16.20
9414;DHT22;4746;35.664;139.738;2022-12-18T08:56:17;8.50;16.20
9414;DHT22;4746;35.664;139.738;2022-12-18T08:58:45;8.30;16.20
9414;DHT22;4746;35.664;139.738;2022-12-18T09:01:13;8.20;16.20
9414;DHT22;4746;35.664;139.738;2022-12-18T09:03:40;8.20;16.50
9414;DHT22;4746;35.664;139.738;2022-12-18T09:06:08;8.20;16.80
9414;DHT22;4746;35.664;139.738;2022-12-18T09:08:36;8.30;17.00
9414;DHT22;4746;35.664;139.738;2022-12-18T09:11:15;8.20;17.10
9414;DHT22;4746;35.664;139.738;2022-12-18T09:13:48;8.20;17.30
9414;DHT22;4746;35.664;139.738;2022-12-18T09:16:16;8.20;17.50
9414;DHT22;4746;35.664;139.738;2022-12-18T09:18:46;8.20;17.70
9414;DHT22;4746;35.664;139.738;2022-12-18T09:21:17;8.20;17.90
9414;DHT22;4746;35.664;139.738;2022-12-18T09:23:50;8.20;18.00
9414;DHT22;4746;35.664;139.738;2022-12-18T09:26:21;8.10;18.00
9414;DHT22;4746;35.664;139.738;2022-12-18T09:28:52;8.10;18.20
9414;DHT22;4746;35.664;139.738;2022-12-18T09:31:21;8.10;18.20
9414;DHT22;4746;35.664;139.738;2022-12-18T09:33:51;8.00;18.10
9414;DHT22;4746;35.664;139.738;2022-12-18T09:36:19;7.90;18.10
9414;DHT22;4746;35.664;139.738;2022-12-18T09:38:47;7.80;18.10
9414;DHT22;4746;35.664;139.738;2022-12-18T09:50:29;7.70;17.60
9414;DHT22;4746;35.664;139.738;2022-12-18T09:53:07;7.60;17.10
9414;DHT22;4746;35.664;139.738;2022-12-18T09:55:45;7.60;16.90
9414;DHT22;4746;35.664;139.738;2022-12-18T09:58:41;7.70;17.00
9414;DHT22;4746;35.664;139.738;2022-12-18T10:01:18;7.70;17.00
9414;DHT22;4746;35.664;139.738;2022-12-18T10:03:49;7.80;16.80
9414;DHT22;4746;35.664;139.738;2022-12-18T10:15:05;7.70;16.60
9414;DHT22;4746;35.664;139.738;2022-12-18T10:20:52;7.70;16.60
9414;DHT22;4746;35.664;139.738;2022-12-18T10:26:21;7.40;16.40
9414;DHT22;4746;35.664;139.738;2022-12-18T10:28:48;7.30;16.50
9414;DHT22;4746;35.664;139.738;2022-12-18T10:31:20;7.20;16.60
9414;DHT22;4746;35.664;139.738;2022-12-18T10:33:49;7.10;16.60
9414;DHT22;4746;35.664;139.738;2022-12-18T10:36:16;7.00;16.60
9414;DHT22;4746;35.664;139.738;2022-12-18T10:38:44;6.80;16.60
9414;DHT22;4746;35.664;139.738;2022-12-18T10:43:47;6.80;16.80
9414;DHT22;4746;35.664;139.738;2022-12-18T10:46:17;6.80;16.90
9414;DHT22;4746;35.664;139.738;2022-12-18T10:54:24;6.80;17.10
9414;DHT22;4746;35.664;139.738;2022-12-18T10:57:17;6.80;17.10
9414;DHT22;4746;35.664;139.738;2022-12-18T11:00:28;6.70;17.10
9414;DHT22;4746;35.664;139.738;2022-12-18T11:02:57;6.70;17.20
9414;DHT22;4746;35.664;139.738;2022-12-18T11:05:31;6.70;17.30
9414;DHT22;4746;35.664;139.738;2022-12-18T11:08:01;6.70;17.20
9414;DHT22;4746;35.664;139.738;2022-12-18T11:10:36;6.60;17.20
9414;DHT22;4746;35.664;139.738;2022-12-18T11:13:26;6.60;17.20
9414;DHT22;4746;35.664;139.738;2022-12-18T11:15:58;6.60;17.20
9414;DHT22;4746;35.664;139.738;2022-12-18T11:18:34;6.60;17.30
9414;DHT22;4746;35.664;139.738;2022-12-18T11:21:09;6.70;17.50
9414;DHT22;4746;35.664;139.738;2022-12-18T11:23:50;6.70;17.40
9414;DHT22;4746;35.664;139.738;2022-12-18T11:26:20;6.60;17.20
9414;DHT22;4746;35.664;139.738;2022-12-18T11:29:14;6.70;17.10
9414;DHT22;4746;35.664;139.738;2022-12-18T11:31:50;6.70;16.90
9414;DHT22;4746;35.664;139.738;2022-12-18T11:34:29;6.70;16.80
9414;DHT22;4746;35.664;139.738;2022-12-18T11:36:59;6.70;16.70
9414;DHT22;4746;35.664;139.738;2022-12-18T11:39:51;6.70;16.60
9414;DHT22;4746;35.664;139.738;2022-12-18T11:42:45;6.60;16.50
9414;DHT22;4746;35.664;139.738;2022-12-18T11:45:28;6.50;16.40
9414;DHT22;4746;35.664;139.738;2022-12-18T11:51:04;6.60;16.30
9414;DHT22;4746;35.664;139.738;2022-12-18T11:53:37;6.50;16.30
9414;DHT22;4746;35.664;139.738;2022-12-18T11:56:36;6.50;16.40
9414;DHT22;4746;35.664;139.738;2022-12-18T11:59:30;6.50;16.30
9414;DHT22;4746;35.664;139.738;2022-12-18T12:02:41;6.50;16.50
9414;DHT22;4746;35.664;139.738;2022-12-18T12:08:52;6.50;16.60
9414;DHT22;4746;35.664;139.738;2022-12-18T12:17:34;6.30;16.80
9414;DHT22;4746;35.664;139.738;2022-12-18T12:38:57;6.10;17.20
9414;DHT22;4746;35.664;139.738;2022-12-18T12:41:34;6.10;17.30
9414;DHT22;4746;35.664;139.738;2022-12-18T12:44:39;6.10;17.40
9414;DHT22;4746;35.664;139.738;2022-12-18T12:47:22;6.10;17.60
9414;DHT22;4746;35.664;139.738;2022-12-18T12:49:59;5.90;17.50
9414;DHT22;4746;35.664;139.738;2022-12-18T12:52:37;5.90;17.50
9414;DHT22;4746;35.664;139.738;2022-12-18T12:55:23;5.90;17.60
9414;DHT22;4746;35.664;139.738;2022-12-18T12:58:15;5.90;17.70
9414;DHT22;4746;35.664;139.738;2022-12-18T13:04:02;5.90;17.90
9414;DHT22;4746;35.664;139.738;2022-12-18T13:09:03;5.80;17.90
9414;DHT22;4746;35.664;139.738;2022-12-18T13:20:13;5.70;18.20
9414;DHT22;4746;35.664;139.738;2022-12-18T13:22:47;5.80;18.40
9414;DHT22;4746;35.664;139.738;2022-12-18T13:25:36;5.70;18.60
9414;DHT22;4746;35.664;139.738;2022-12-18T13:28:09;5.80;18.80
9414;DHT22;4746;35.664;139.738;2022-12-18T13:31:05;5.70;19.00
9414;DHT22;4746;35.664;139.738;2022-12-18T13:33:39;5.70;19.10
9414;DHT22;4746;35.664;139.738;2022-12-18T13:36:17;5.70;19.30
9414;DHT22;4746;35.664;139.738;2022-12-18T13:41:50;5.70;19.60
9414;DHT22;4746;35.664;139.738;2022-12-18T13:45:00;5.80;19.80
9414;DHT22;4746;35.664;139.738;2022-12-18T13:47:37;5.80;19.90
9414;DHT22;4746;35.664;139.738;2022-12-18T13:50:34;5.80;19.70
9414;DHT22;4746;35.664;139.738;2022-12-18T13:53:04;5.80;19.70
9414;DHT22;4746;35.664;139.738;2022-12-18T13:55:32;5.80;19.80
9414;DHT22;4746;35.664;139.738;2022-12-18T13:58:06;5.70;19.80
9414;DHT22;4746;35.664;139.738;2022-12-18T14:00:42;5.70;20.00
9414;DHT22;4746;35.664;139.738;2022-12-18T14:03:24;5.60;20.10
9414;DHT22;4746;35.664;139.738;2022-12-18T14:06:02;5.60;20.00
9414;DHT22;4746;35.664;139.738;2022-12-18T14:08:40;5.70;20.30
9414;DHT22;4746;35.664;139.738;2022-12-18T14:11:20;5.70;20.40
9414;DHT22;4746;35.664;139.738;2022-12-18T14:13:49;5.70;20.80
9414;DHT22;4746;35.664;139.738;2022-12-18T14:16:17;5.70;21.00
9414;DHT22;4746;35.664;139.738;2022-12-18T14:18:56;5.60;21.00
9414;DHT22;4746;35.664;139.738;2022-12-18T14:21:31;5.50;21.00
9414;DHT22;4746;35.664;139.738;2022-12-18T14:24:21;5.50;21.00
9414;DHT22;4746;35.664;139.738;2022-12-18T14:26:49;5.50;21.10
9414;DHT22;4746;35.664;139.738;2022-12-18T14:29:24;5.50;21.20
9414;DHT22;4746;35.664;139.738;2022-12-18T14:32:13;5.30;21.20
9414;DHT22;4746;35.664;139.738;2022-12-18T14:34:51;5.30;21.40
9414;DHT22;4746;35.664;139.738;2022-12-18T14:37:25;5.30;21.50
9414;DHT22;4746;35.664;139.738;2022-12-18T14:40:01;5.30;21.70
9414;DHT22;4746;35.664;139.738;2022-12-18T14:42:31;5.20;21.60
9414;DHT22;4746;35.664;139.738;2022-12-18T14:45:37;5.20;21.80
9414;DHT22;4746;35.664;139.738;2022-12-18T14:48:20;5.20;21.90
9414;DHT22;4746;35.664;139.738;2022-12-18T14:56:37;5.00;22.50
9414;DHT22;4746;35.664;139.738;2022-12-18T14:59:18;5.00;23.00
9414;DHT22;4746;35.664;139.738;2022-12-18T15:02:02;4.90;22.60
9414;DHT22;4746;35.664;139.738;2022-12-18T15:04:39;5.00;22.80
9414;DHT22;4746;35.664;139.738;2022-12-18T15:07:23;5.00;23.00
9414;DHT22;4746;35.664;139.738;2022-12-18T15:12:44;5.00;23.30
9414;DHT22;4746;35.664;139.738;2022-12-18T15:20:50;5.00;23.80
9414;DHT22;4746;35.664;139.738;2022-12-18T15:26:14;5.00;24.20
9414;DHT22;4746;35.664;139.738;2022-12-18T15:28:54;5.00;24.40
9414;DHT22;4746;35.664;139.738;2022-12-18T15:31:32;5.00;24.60
9414;DHT22;4746;35.664;139.738;2022-12-18T15:34:19;4.90;24.60
9414;DHT22;4746;35.664;139.738;2022-12-18T15:36:50;4.90;25.00
9414;DHT22;4746;35.664;139.738;2022-12-18T15:39:17;4.80;25.20
9414;DHT22;4746;35.664;139.738;2022-12-18T15:41:46;4.80;25.50
9414;DHT22;4746;35.664;139.738;2022-12-18T15:44:32;4.70;25.90
9414;DHT22;4746;35.664;139.738;2022-12-18T15:47:00;4.60;26.50
9414;DHT22;4746;35.664;139.738;2022-12-18T15:49:27;4.60;26.90
9414;DHT22;4746;35.664;139.738;2022-12-18T15:51:58;4.50;27.20
9414;DHT22;4746;35.664;139.738;2022-12-18T15:54:28;4.60;27.50
9414;DHT22;4746;35.664;139.738;2022-12-18T15:57:14;4.60;28.00
9414;DHT22;4746;35.664;139.738;2022-12-18T15:59:55;4.60;28.50
9414;DHT22;4746;35.664;139.738;2022-12-18T16:02:24;4.60;29.00
9414;DHT22;4746;35.664;139.738;2022-12-18T16:04:54;4.70;29.40
9414;DHT22;4746;35.664;139.738;2022-12-18T16:07:21;4.70;29.60
9414;DHT22;4746;35.664;139.738;2022-12-18T16:09:49;4.70;29.70
9414;DHT22;4746;35.664;139.738;2022-12-18T16:12:22;4.60;29.80
9414;DHT22;4746;35.664;139.738;2022-12-18T16:14:53;4.60;30.00
9414;DHT22;4746;35.664;139.738;2022-12-18T16:17:20;4.50;30.10
9414;DHT22;4746;35.664;139.738;2022-12-18T16:19:48;4.50;30.30
9414;DHT22;4746;35.664;139.738;2022-12-18T16:22:24;4.40;30.30
9414;DHT22;4746;35.664;139.738;2022-12-18T16:24:54;4.40;30.50
9414;DHT22;4746;35.664;139.738;2022-12-18T16:27:24;4.40;30.70
9414;DHT22;4746;35.664;139.738;2022-12-18T16:29:52;4.40;30.90
9414;DHT22;4746;35.664;139.738;2022-12-18T16:32:20;4.50;31.00
9414;DHT22;4746;35.664;139.738;2022-12-18T16:34:49;4.30;31.00
9414;DHT22;4746;35.664;139.738;2022-12-18T16:37:16;4.30;31.10
9414;DHT22;4746;35.664;139.738;2022-12-18T16:39:44;4.20;31.10
9414;DHT22;4746;35.664;139.738;2022-12-18T16:42:13;4.20;31.10
9414;DHT22;4746;35.664;139.738;2022-12-18T16:44:46;4.20;31.00
9414;DHT22;4746;35.664;139.738;2022-12-18T16:47:15;4.20;31.30
9414;DHT22;4746;35.664;139.738;2022-12-18T16:49:44;4.20;31.40
9414;DHT22;4746;35.664;139.738;2022-12-18T16:52:12;4.20;31.40
9414;DHT22;4746;35.664;139.738;2022-12-18T16:54:40;4.10;31.40
9414;DHT22;4746;35.664;139.738;2022-12-18T16:57:12;4.00;31.30
9414;DHT22;4746;35.664;139.738;2022-12-18T16:59:42;4.00;32.10
9414;DHT22;4746;35.664;139.738;2022-12-18T17:02:16;4.00;31.50
9414;DHT22;4746;35.664;139.738;2022-12-18T17:04:49;4.00;31.80
9414;DHT22;4746;35.664;139.738;2022-12-18T17:07:19;3.90;31.90
9414;DHT22;4746;35.664;139.738;2022-12-18T17:09:49;3.80;32.10
9414;DHT22;4746;35.664;139.738;2022-12-18T17:12:22;3.80;32.50
9414;DHT22;4746;35.664;139.738;2022-12-18T17:14:50;3.80;32.80
9414;DHT22;4746;35.664;139.738;2022-12-18T17:17:18;3.70;32.90
9414;DHT22;4746;35.664;139.738;2022-12-18T17:19:45;3.70;33.00
9414;DHT22;4746;35.664;139.738;2022-12-18T17:22:13;3.70;33.20
9414;DHT22;4746;35.664;139.738;2022-12-18T17:24:40;3.70;33.60
9414;DHT22;4746;35.664;139.738;2022-12-18T17:27:08;3.80;33.70
9414;DHT22;4746;35.664;139.738;2022-12-18T17:29:35;3.80;33.10
9414;DHT22;4746;35.664;139.738;2022-12-18T17:32:03;3.90;32.70
9414;DHT22;4746;35.664;139.738;2022-12-18T17:34:31;4.00;32.90
9414;DHT22;4746;35.664;139.738;2022-12-18T17:36:58;4.00;33.20
9414;DHT22;4746;35.664;139.738;2022-12-18T17:39:26;3.90;33.10
9414;DHT22;4746;35.664;139.738;2022-12-18T17:41:55;3.90;32.90
9414;DHT22;4746;35.664;139.738;2022-12-18T17:44:23;3.90;33.10
9414;DHT22;4746;35.664;139.738;2022-12-18T17:46:51;3.80;33.40
9414;DHT22;4746;35.664;139.738;2022-12-18T17:49:18;3.70;33.50
9414;DHT22;4746;35.664;139.738;2022-12-18T17:51:47;3.70;33.70
9414;DHT22;4746;35.664;139.738;2022-12-18T17:54:14;3.70;33.80
9414;DHT22;4746;35.664;139.738;2022-12-18T17:56:42;3.70;33.90
9414;DHT22;4746;35.664;139.738;2022-12-18T17:59:11;3.60;34.40
9414;DHT22;4746;35.664;139.738;2022-12-18T18:01:40;3.60;34.50
9414;DHT22;4746;35.664;139.738;2022-12-18T18:04:07;3.70;34.60
9414;DHT22;4746;35.664;139.738;2022-12-18T18:06:35;3.70;34.70
9414;DHT22;4746;35.664;139.738;2022-12-18T18:09:02;3.70;34.90
9414;DHT22;4746;35.664;139.738;2022-12-18T18:11:30;3.60;35.00